Time;durP1;ratioP1;P1;durP2;ratioP2;P2;SDS_P1;SDS_P2;PMS_P1;PMS_P2;Temp;Humidity;BMP_temperature;BMP_pressure;BME280_temperature;BME280_humidity;BME280_pressure;Samples;Min_cycle;Max_cycle;Signal;HPM_P1;HPM_P2
2022/06/10 00:01:57;;;;;;;1.42;0.70;;;16.50;99.90;;;;;;5113815;28;20170;-58
2022/06/10 00:04:23;;;;;;;1.27;0.70;;;16.50;99.90;;;;;;5113763;28;20317;-58
2022/06/10 00:06:48;;;;;;;1.02;0.50;;;16.50;99.90;;;;;;5112344;28;20189;-59
2022/06/10 00:09:14;;;;;;;2.17;0.95;;;16.50;99.90;;;;;;5112802;28;20530;-58
2022/06/10 00:11:40;;;;;;;1.50;0.60;;;16.50;99.90;;;;;;5113967;28;20169;-58
2022/06/10 00:14:05;;;;;;;1.98;0.70;;;16.50;99.90;;;;;;5113739;28;20542;-58
2022/06/10 00:16:31;;;;;;;1.15;0.68;;;16.50;99.90;;;;;;5113772;28;20228;-58
2022/06/10 00:18:57;;;;;;;1.25;0.55;;;16.50;99.90;;;;;;5113672;28;20169;-58
2022/06/10 00:21:23;;;;;;;2.53;1.33;;;16.50;99.90;;;;;;5112370;28;20165;-58
2022/06/10 00:23:49;;;;;;;2.95;0.70;;;16.50;99.90;;;;;;5113736;28;20213;-59
2022/06/10 00:26:16;;;;;;;2.03;0.70;;;16.50;99.90;;;;;;5113724;28;20234;-58
2022/06/10 00:28:43;;;;;;;1.92;0.95;;;16.50;99.90;;;;;;5112394;28;20169;-58
2022/06/10 00:31:10;;;;;;;1.85;0.98;;;16.50;99.90;;;;;;5113528;28;20216;-59
2022/06/10 00:33:35;;;;;;;1.70;0.90;;;16.50;99.90;;;;;;5112241;28;20654;-59
2022/06/10 00:36:03;;;;;;;2.33;0.70;;;16.40;99.90;;;;;;5112171;28;20219;-59
2022/06/10 00:38:29;;;;;;;2.20;0.70;;;16.50;99.90;;;;;;5098081;28;20185;-59
2022/06/10 00:40:55;;;;;;;0.85;0.60;;;16.40;99.90;;;;;;5118031;28;20173;-59
2022/06/10 00:43:24;;;;;;;1.45;0.60;;;16.50;99.90;;;;;;5116338;28;20201;-58
2022/06/10 00:46:12;;;;;;;0.90;0.75;;;16.50;99.90;;;;;;5117606;28;20199;-58
2022/06/10 00:48:57;;;;;;;1.80;0.68;;;16.40;99.90;;;;;;5117584;28;20161;-59
2022/06/10 00:51:31;;;;;;;3.30;1.05;;;16.50;99.90;;;;;;5117449;28;20169;-59
2022/06/10 00:54:27;;;;;;;0.93;0.70;;;16.40;99.90;;;;;;5117313;28;20540;-58
2022/06/10 00:57:11;;;;;;;2.28;0.73;;;16.40;99.90;;;;;;5117203;28;20706;-58
2022/06/10 00:59:49;;;;;;;0.98;0.73;;;16.50;99.90;;;;;;5117411;28;20184;-59
2022/06/10 01:02:18;;;;;;;1.75;0.70;;;16.40;99.90;;;;;;5117202;28;20189;-59
2022/06/10 01:04:44;;;;;;;1.95;0.80;;;16.40;99.90;;;;;;5117126;28;20174;-58
2022/06/10 01:07:11;;;;;;;1.27;0.80;;;16.40;99.90;;;;;;5116889;28;20195;-58
2022/06/10 01:09:39;;;;;;;1.60;0.80;;;16.40;99.90;;;;;;5116111;28;20165;-59
2022/06/10 01:12:25;;;;;;;1.17;0.60;;;16.30;99.90;;;;;;5117489;28;20616;-58
2022/06/10 01:15:05;;;;;;;3.85;0.98;;;16.30;99.90;;;;;;5117089;28;20217;-58
2022/06/10 01:17:41;;;;;;;1.70;0.70;;;16.30;99.90;;;;;;5115641;28;20257;-58
2022/06/10 01:20:49;;;;;;;1.30;0.90;;;16.50;99.90;;;;;;5117037;28;20653;-58
2022/06/10 01:23:51;;;;;;;1.30;0.73;;;16.50;99.90;;;;;;5117022;28;20651;-58
2022/06/10 01:29:44;;;;;;;4.63;1.45;;;16.30;99.90;;;;;;5117085;28;20260;-58
2022/06/10 01:32:18;;;;;;;4.55;1.45;;;16.30;99.90;;;;;;5116575;28;20259;-58
2022/06/10 01:34:50;;;;;;;11.35;1.95;;;16.40;99.90;;;;;;5115626;28;20244;-58
2022/06/10 01:37:41;;;;;;;6.38;1.60;;;16.30;99.90;;;;;;5116370;28;20173;-58
2022/06/10 01:40:26;;;;;;;10.40;1.92;;;16.30;99.90;;;;;;5116569;28;20169;-58
2022/06/10 01:43:03;;;;;;;6.10;1.58;;;16.30;99.90;;;;;;5116658;28;20216;-58
2022/06/10 01:46:04;;;;;;;10.38;1.65;;;16.30;99.90;;;;;;5116654;28;20177;-57
2022/06/10 01:48:56;;;;;;;5.25;1.40;;;16.30;99.90;;;;;;5116402;28;20568;-58
2022/06/10 01:51:30;;;;;;;10.65;1.88;;;16.30;99.90;;;;;;5116357;28;20173;-58
2022/06/10 01:54:04;;;;;;;11.52;1.65;;;16.30;99.90;;;;;;5116369;28;20177;-58
2022/06/10 01:56:35;;;;;;;14.15;1.70;;;16.30;99.90;;;;;;5116336;28;20227;-58
2022/06/10 01:59:27;;;;;;;11.90;1.67;;;16.30;99.90;;;;;;5116043;28;20645;-58
2022/06/10 02:01:59;;;;;;;4.20;1.48;;;16.40;99.90;;;;;;5116312;28;20630;-58
2022/06/10 02:04:33;;;;;;;5.22;1.77;;;16.30;99.90;;;;;;5115056;28;20204;-58
2022/06/10 02:07:24;;;;;;;5.90;1.70;;;16.40;99.90;;;;;;5115747;28;20514;-58
2022/06/10 02:09:59;;;;;;;6.03;1.60;;;16.30;99.90;;;;;;5114627;28;20264;-59
2022/06/10 02:12:35;;;;;;;4.30;1.60;;;16.30;99.90;;;;;;5114805;28;20307;-58
2022/06/10 02:15:07;;;;;;;8.57;1.92;;;16.30;99.90;;;;;;5115989;28;20318;-58
2022/06/10 02:17:42;;;;;;;9.70;1.67;;;16.30;99.90;;;;;;5115855;28;20697;-58
2022/06/10 02:20:14;;;;;;;9.93;2.72;;;16.30;99.90;;;;;;5115637;28;20165;-58
2022/06/10 02:22:45;;;;;;;7.68;2.40;;;16.40;99.90;;;;;;5115737;28;20197;-58
2022/06/10 02:25:11;;;;;;;5.75;1.70;;;16.40;99.90;;;;;;5115972;28;20192;-58
2022/06/10 02:27:41;;;;;;;7.25;1.85;;;16.40;99.90;;;;;;5115961;28;20173;-58
2022/06/10 02:30:25;;;;;;;4.20;1.80;;;16.20;99.90;;;;;;5115646;28;20177;-58
2022/06/10 02:32:51;;;;;;;2.95;1.00;;;16.20;99.90;;;;;;5115448;28;20179;-58
2022/06/10 02:35:18;;;;;;;4.20;1.20;;;16.30;99.90;;;;;;5115475;28;20205;-58
2022/06/10 02:38:09;;;;;;;3.92;1.42;;;16.30;99.90;;;;;;5113929;28;20169;-58
2022/06/10 02:40:46;;;;;;;3.35;1.02;;;16.30;99.90;;;;;;5115436;28;20177;-58
2022/06/10 02:43:34;;;;;;;4.18;1.52;;;16.30;99.90;;;;;;5114260;28;20208;-59
2022/06/10 02:46:03;;;;;;;4.93;1.98;;;16.30;99.90;;;;;;5115038;28;20256;-58
2022/06/10 02:48:59;;;;;;;4.68;1.42;;;16.30;99.90;;;;;;5115196;28;20162;-57
2022/06/10 02:51:24;;;;;;;3.03;1.52;;;16.30;99.90;;;;;;5115017;28;20173;-58
2022/06/10 02:53:50;;;;;;;3.97;1.48;;;16.30;99.90;;;;;;5115007;28;20169;-58
2022/06/10 02:56:23;;;;;;;2.85;1.10;;;16.30;99.90;;;;;;5113991;28;20180;-59
2022/06/10 03:02:03;;;;;;;0.90;0.70;;;16.30;99.90;;;;;;5114126;28;20653;-60
2022/06/10 03:04:58;;;;;;;1.05;0.70;;;16.30;99.90;;;;;;5115093;28;20196;-57
2022/06/10 03:07:39;;;;;;;1.63;0.50;;;16.40;99.90;;;;;;5114514;28;20208;-58
2022/06/10 03:10:17;;;;;;;0.85;0.75;;;16.30;99.90;;;;;;5114664;28;20579;-58
2022/06/10 03:13:11;;;;;;;1.05;0.45;;;16.30;99.90;;;;;;5114891;28;20666;-58
2022/06/10 03:15:40;;;;;;;0.93;0.65;;;16.30;99.90;;;;;;5114791;28;20169;-59
2022/06/10 03:18:33;;;;;;;0.77;0.55;;;16.30;99.90;;;;;;5114532;28;20176;-58
2022/06/10 03:21:56;;;;;;;1.00;0.52;;;16.30;99.90;;;;;;5114690;28;20546;-58
2022/06/10 03:24:51;;;;;;;0.55;0.55;;;16.30;99.90;;;;;;5090931;28;20197;-58
2022/06/10 03:27:20;;;;;;;1.55;1.42;;;16.30;99.90;;;;;;5096370;28;20580;-58
2022/06/10 03:29:58;;;;;;;0.73;0.60;;;16.30;99.90;;;;;;5114549;28;20166;-58
2022/06/10 03:32:32;;;;;;;0.52;0.52;;;16.30;99.90;;;;;;5114452;28;20240;-59
2022/06/10 03:35:24;;;;;;;0.82;0.70;;;16.30;99.90;;;;;;5114296;28;20560;-58
2022/06/10 03:37:50;;;;;;;0.98;0.80;;;16.30;99.90;;;;;;5109291;28;20193;-58
2022/06/10 03:40:20;;;;;;;0.43;0.40;;;16.30;99.90;;;;;;5114291;28;20677;-58
2022/06/10 03:42:49;;;;;;;0.40;0.40;;;16.30;99.90;;;;;;5112864;28;20208;-58
2022/06/10 03:45:18;;;;;;;0.38;0.38;;;16.30;99.90;;;;;;5114531;28;20180;-58
2022/06/10 03:47:44;;;;;;;0.40;0.40;;;16.30;99.90;;;;;;5113957;28;20170;-58
2022/06/10 03:50:13;;;;;;;0.75;0.47;;;16.30;99.90;;;;;;5095892;28;20177;-58
2022/06/10 03:52:41;;;;;;;1.15;0.40;;;16.20;99.90;;;;;;5114472;28;20205;-58
2022/06/10 03:55:09;;;;;;;0.70;0.70;;;16.30;99.90;;;;;;5113922;28;20192;-58
2022/06/10 03:57:36;;;;;;;0.52;0.43;;;16.30;99.90;;;;;;5112668;28;20173;-58
2022/06/10 04:00:06;;;;;;;0.30;0.30;;;16.30;99.90;;;;;;5112643;28;20234;-58
2022/06/10 04:02:31;;;;;;;0.88;0.45;;;16.40;99.90;;;;;;5112682;28;20682;-58
2022/06/10 04:04:57;;;;;;;0.28;0.28;;;16.40;99.90;;;;;;5114006;28;20205;-58
2022/06/10 04:07:23;;;;;;;0.40;0.40;;;16.40;99.90;;;;;;5112774;28;20692;-58
2022/06/10 04:09:48;;;;;;;0.20;0.20;;;16.40;99.90;;;;;;5113877;28;20222;-59
2022/06/10 04:12:15;;;;;;;0.32;0.32;;;16.40;99.90;;;;;;5113389;28;20195;-58
2022/06/10 04:14:42;;;;;;;0.20;0.20;;;16.40;99.90;;;;;;5113726;28;20242;-58
2022/06/10 04:17:09;;;;;;;0.22;0.22;;;16.40;99.90;;;;;;5113688;28;20173;-58
2022/06/10 04:19:35;;;;;;;0.17;0.17;;;16.40;99.90;;;;;;5112685;28;20510;-58
2022/06/10 04:22:03;;;;;;;0.93;0.65;;;16.40;99.90;;;;;;5112538;28;20173;-58
2022/06/10 04:24:29;;;;;;;0.45;0.32;;;16.40;99.90;;;;;;5113646;27;20176;-58
2022/06/10 04:26:54;;;;;;;0.20;0.20;;;16.40;99.90;;;;;;5113620;28;20180;-58
2022/06/10 04:29:20;;;;;;;0.85;0.52;;;16.40;99.90;;;;;;5112566;28;20180;-58
2022/06/10 04:31:46;;;;;;;0.10;0.10;;;16.30;99.90;;;;;;5112500;28;20573;-58
2022/06/10 04:34:12;;;;;;;0.20;0.20;;;16.40;99.90;;;;;;5112384;28;20193;-59
2022/06/10 04:36:38;;;;;;;0.75;0.30;;;16.50;99.90;;;;;;5113574;28;20223;-58
2022/06/10 04:39:04;;;;;;;2.38;0.30;;;16.50;99.90;;;;;;5113837;28;20579;-58
2022/06/10 04:41:29;;;;;;;0.52;0.40;;;16.50;99.90;;;;;;5112196;28;20580;-58
2022/06/10 04:43:55;;;;;;;0.77;0.60;;;16.50;99.90;;;;;;5113330;28;20205;-58
2022/06/10 04:46:30;;;;;;;0.60;0.40;;;16.50;99.90;;;;;;5112220;28;20252;-58
2022/06/10 04:48:56;;;;;;;0.95;0.40;;;16.50;99.90;;;;;;5113442;28;20173;-58
2022/06/10 04:51:22;;;;;;;0.73;0.60;;;16.60;99.90;;;;;;5113539;28;20222;-58
2022/06/10 04:53:48;;;;;;;1.30;0.50;;;16.50;99.90;;;;;;5113579;28;20695;-58
2022/06/10 04:56:14;;;;;;;0.70;0.60;;;16.50;99.90;;;;;;5113506;28;20174;-59
2022/06/10 04:58:39;;;;;;;0.73;0.55;;;16.50;99.90;;;;;;5113807;28;20181;-58
2022/06/10 05:01:06;;;;;;;0.43;0.43;;;16.50;99.90;;;;;;5113453;28;20177;-58
2022/06/10 05:03:32;;;;;;;1.15;0.60;;;16.60;99.90;;;;;;5112071;28;20908;-57
2022/06/10 05:05:58;;;;;;;0.70;0.70;;;16.60;99.90;;;;;;5113168;28;20185;-57
2022/06/10 05:08:24;;;;;;;1.52;0.80;;;16.60;99.90;;;;;;5112025;28;20177;-57
2022/06/10 05:10:50;;;;;;;0.70;0.60;;;16.60;99.90;;;;;;5113014;28;20222;-58
2022/06/10 05:13:16;;;;;;;0.57;0.55;;;16.70;99.90;;;;;;5112090;28;20189;-58
2022/06/10 05:15:43;;;;;;;1.02;0.70;;;16.70;99.90;;;;;;5112140;28;20186;-58
2022/06/10 05:18:10;;;;;;;0.80;0.73;;;16.60;99.90;;;;;;5112917;28;20169;-58
2022/06/10 05:20:40;;;;;;;1.13;0.90;;;16.70;99.90;;;;;;5112977;28;20169;-59
2022/06/10 05:23:06;;;;;;;1.50;1.02;;;16.70;99.90;;;;;;5112870;28;20247;-58
2022/06/10 05:25:32;;;;;;;0.43;0.43;;;16.70;99.90;;;;;;5113972;28;20173;-58
2022/06/10 05:27:59;;;;;;;0.57;0.57;;;16.70;99.90;;;;;;5116848;28;20173;-58
2022/06/10 05:30:28;;;;;;;0.50;0.30;;;16.70;99.90;;;;;;5115774;28;20226;-59
2022/06/10 05:32:53;;;;;;;0.63;0.55;;;16.80;99.90;;;;;;5116681;28;20178;-59
2022/06/10 05:35:19;;;;;;;0.88;0.68;;;16.80;99.90;;;;;;5115539;28;20174;-59
2022/06/10 05:37:47;;;;;;;0.85;0.80;;;16.80;99.90;;;;;;5115434;28;20233;-60
2022/06/10 05:40:13;;;;;;;0.50;0.50;;;16.80;99.90;;;;;;5115200;28;20166;-59
2022/06/10 05:42:40;;;;;;;0.70;0.57;;;16.80;99.90;;;;;;5113233;28;20213;-59
2022/06/10 05:45:06;;;;;;;0.43;0.38;;;16.80;99.90;;;;;;5115591;28;20547;-58
2022/06/10 05:47:34;;;;;;;1.38;0.55;;;16.80;99.90;;;;;;5116496;28;20173;-59
2022/06/10 05:50:08;;;;;;;0.30;0.30;;;16.80;99.90;;;;;;5115073;28;20177;-58
2022/06/10 05:52:34;;;;;;;0.50;0.38;;;16.90;99.90;;;;;;5116187;28;20254;-59
2022/06/10 05:55:03;;;;;;;0.90;0.77;;;16.90;99.90;;;;;;5116343;28;20613;-59
2022/06/10 05:57:30;;;;;;;0.47;0.40;;;16.90;99.90;;;;;;5115116;28;20177;-59
2022/06/10 05:59:57;;;;;;;0.63;0.50;;;17.00;99.90;;;;;;5116009;28;20615;-59
2022/06/10 06:02:24;;;;;;;0.25;0.25;;;17.00;99.90;;;;;;5114671;28;20766;-59
2022/06/10 06:04:50;;;;;;;0.77;0.40;;;16.90;99.90;;;;;;5116006;28;20176;-58
2022/06/10 06:07:22;;;;;;;0.30;0.30;;;17.00;99.90;;;;;;5116004;28;20271;-58
2022/06/10 06:09:48;;;;;;;0.47;0.45;;;17.00;99.90;;;;;;5115866;28;20177;-58
2022/06/10 06:12:14;;;;;;;0.40;0.40;;;17.00;99.90;;;;;;5115931;28;20173;-59
2022/06/10 06:14:40;;;;;;;1.05;0.50;;;16.90;99.90;;;;;;5116278;28;20238;-59
2022/06/10 06:17:06;;;;;;;0.75;0.68;;;17.00;99.90;;;;;;5115837;28;20176;-58
2022/06/10 06:19:33;;;;;;;0.20;0.20;;;17.00;99.90;;;;;;5115604;28;20169;-58
2022/06/10 06:21:59;;;;;;;0.30;0.28;;;17.00;99.90;;;;;;5115796;28;20177;-58
2022/06/10 06:24:25;;;;;;;0.30;0.30;;;17.00;99.90;;;;;;5115832;28;20212;-58
2022/06/10 06:26:51;;;;;;;0.50;0.40;;;17.00;99.90;;;;;;5115740;28;20228;-58
2022/06/10 06:29:19;;;;;;;0.73;0.73;;;17.00;99.90;;;;;;5115569;28;20181;-58
2022/06/10 06:31:45;;;;;;;0.30;0.30;;;16.90;99.90;;;;;;5114173;28;20181;-58
2022/06/10 06:34:11;;;;;;;0.50;0.50;;;16.90;99.90;;;;;;5115222;28;20177;-56
2022/06/10 06:36:45;;;;;;;0.45;0.45;;;17.00;99.90;;;;;;5115541;28;20211;-56
2022/06/10 06:39:12;;;;;;;0.73;0.45;;;17.00;99.90;;;;;;5115537;28;20204;-56
2022/06/10 06:41:38;;;;;;;0.45;0.45;;;17.00;99.90;;;;;;5115374;28;20169;-56
2022/06/10 06:44:05;;;;;;;0.40;0.40;;;17.00;99.90;;;;;;5113894;28;20212;-56
2022/06/10 06:46:34;;;;;;;0.98;0.50;;;17.10;99.90;;;;;;5115263;28;20172;-56
2022/06/10 06:49:02;;;;;;;0.40;0.40;;;17.00;99.90;;;;;;5115146;28;20165;-56
2022/06/10 06:51:28;;;;;;;0.55;0.52;;;17.10;99.90;;;;;;5114050;28;20200;-56
2022/06/10 06:53:53;;;;;;;0.50;0.43;;;17.20;99.90;;;;;;5115155;28;20238;-56
2022/06/10 06:56:19;;;;;;;0.50;0.40;;;17.20;99.90;;;;;;5097026;28;20181;-56
2022/06/10 06:58:45;;;;;;;0.32;0.32;;;17.20;99.90;;;;;;5113813;28;20205;-56
2022/06/10 07:01:10;;;;;;;0.30;0.30;;;17.20;99.90;;;;;;5114863;28;20177;-56
2022/06/10 07:03:36;;;;;;;0.55;0.40;;;17.30;99.90;;;;;;5114902;28;20247;-56
2022/06/10 07:06:02;;;;;;;0.20;0.15;;;17.30;99.90;;;;;;5113667;28;20189;-56
2022/06/10 07:08:33;;;;;;;0.57;0.47;;;17.20;99.90;;;;;;5113782;28;20173;-56
2022/06/10 07:11:02;;;;;;;0.40;0.40;;;17.30;99.90;;;;;;5114827;28;20252;-56
2022/06/10 07:13:27;;;;;;;0.40;0.40;;;17.40;99.90;;;;;;5114970;28;20204;-56
2022/06/10 07:15:55;;;;;;;0.47;0.43;;;17.40;99.90;;;;;;5114490;28;20209;-56
2022/06/10 07:18:21;;;;;;;0.35;0.35;;;17.50;99.90;;;;;;5114763;28;20161;-57
2022/06/10 07:20:47;;;;;;;0.88;0.88;;;17.60;99.90;;;;;;5113333;28;20179;-56
2022/06/10 07:23:13;;;;;;;0.50;0.40;;;17.70;99.90;;;;;;5114496;28;20225;-56
2022/06/10 07:25:38;;;;;;;0.20;0.20;;;17.80;99.90;;;;;;5114468;28;20209;-56
2022/06/10 07:28:05;;;;;;;0.22;0.22;;;17.90;99.90;;;;;;5114353;28;20173;-56
2022/06/10 07:30:32;;;;;;;0.40;0.40;;;18.00;99.90;;;;;;5113190;28;20169;-56
2022/06/10 07:32:59;;;;;;;0.30;0.30;;;18.10;99.90;;;;;;5113209;28;20264;-56
2022/06/10 07:35:26;;;;;;;0.50;0.40;;;18.30;99.90;;;;;;5114363;28;20500;-56
2022/06/10 07:37:51;;;;;;;0.15;0.08;;;18.40;99.90;;;;;;5114333;28;20169;-56
2022/06/10 07:43:15;;;;;;;0.45;0.45;;;18.70;99.90;;;;;;5114182;28;20696;-56
2022/06/10 07:45:41;;;;;;;0.30;0.30;;;18.50;99.90;;;;;;5113089;28;20165;-57
2022/06/10 07:48:07;;;;;;;0.35;0.30;;;18.80;99.90;;;;;;5112218;28;20630;-56
2022/06/10 07:50:33;;;;;;;0.10;0.10;;;19.00;99.90;;;;;;5114074;28;20175;-56
2022/06/10 07:52:59;;;;;;;0.20;0.20;;;19.00;99.90;;;;;;5113933;28;20174;-56
2022/06/10 07:55:25;;;;;;;0.40;0.30;;;19.00;99.90;;;;;;5112684;28;20169;-56
2022/06/10 07:57:51;;;;;;;0.20;0.20;;;19.10;99.90;;;;;;5114147;28;20176;-56
2022/06/10 08:00:18;;;;;;;0.08;0.08;;;19.20;99.90;;;;;;5112818;28;20192;-56
2022/06/10 08:02:44;;;;;;;0.52;0.30;;;19.40;99.90;;;;;;5113714;28;20224;-56
2022/06/10 08:05:14;;;;;;;0.20;0.20;;;19.50;99.90;;;;;;5113755;28;20173;-56
2022/06/10 08:07:40;;;;;;;0.38;0.38;;;19.60;99.90;;;;;;5113668;28;20208;-57
2022/06/10 08:10:14;;;;;;;0.55;0.28;;;19.70;99.90;;;;;;5113607;28;20177;-56
2022/06/10 08:12:40;;;;;;;0.20;0.20;;;19.70;99.90;;;;;;5112677;28;20200;-57
2022/06/10 08:15:06;;;;;;;0.20;0.20;;;19.90;99.90;;;;;;5113750;28;20296;-57
2022/06/10 08:17:32;;;;;;;0.20;0.20;;;20.10;99.90;;;;;;5112619;28;20173;-59
2022/06/10 08:19:57;;;;;;;0.20;0.20;;;20.50;99.90;;;;;;5113646;28;20166;-58
2022/06/10 08:22:32;;;;;;;0.65;0.65;;;20.90;99.90;;;;;;5113506;28;20215;-58
2022/06/10 08:24:59;;;;;;;0.20;0.20;;;21.20;99.90;;;;;;5113773;28;20169;-57
2022/06/10 08:27:25;;;;;;;0.30;0.30;;;21.30;99.90;;;;;;5112471;28;20606;-57
2022/06/10 08:29:51;;;;;;;0.40;0.40;;;21.20;99.90;;;;;;5113548;28;20181;-58
2022/06/10 08:32:17;;;;;;;0.28;0.28;;;21.10;99.90;;;;;;5112285;28;20265;-57
2022/06/10 08:34:43;;;;;;;0.57;0.30;;;21.20;99.90;;;;;;5113631;28;20268;-57
2022/06/10 08:37:10;;;;;;;0.20;0.20;;;21.10;99.90;;;;;;5112475;28;20394;-57
2022/06/10 08:39:36;;;;;;;0.08;0.08;;;20.80;99.90;;;;;;5112559;28;20204;-57
2022/06/10 08:42:08;;;;;;;0.15;0.15;;;20.70;99.90;;;;;;5113374;28;20204;-57
2022/06/10 08:44:45;;;;;;;0.20;0.20;;;20.80;99.90;;;;;;5113482;28;20226;-57
2022/06/10 08:47:31;;;;;;;0.30;0.30;;;20.90;99.90;;;;;;5113610;28;20218;-57
2022/06/10 08:50:15;;;;;;;0.25;0.22;;;21.00;99.90;;;;;;5113737;28;20226;-58
2022/06/10 08:53:02;;;;;;;0.63;0.40;;;20.90;99.90;;;;;;5113439;28;20185;-57
2022/06/10 08:55:45;;;;;;;0.35;0.35;;;20.80;99.90;;;;;;5113369;28;20240;-58
2022/06/10 08:58:22;;;;;;;0.45;0.30;;;20.60;99.90;;;;;;5113487;28;20176;-58
2022/06/10 09:00:50;;;;;;;0.70;0.35;;;21.00;99.90;;;;;;5117467;27;20176;-57
2022/06/10 09:03:44;;;;;;;0.30;0.30;;;21.10;99.90;;;;;;5117318;28;20654;-58
2022/06/10 09:06:16;;;;;;;0.25;0.25;;;21.40;99.90;;;;;;5117187;28;20246;-58
2022/06/10 09:08:46;;;;;;;0.17;0.17;;;21.70;99.90;;;;;;5117290;28;20634;-57
2022/06/10 09:11:37;;;;;;;0.20;0.20;;;22.00;99.90;;;;;;5117286;28;20568;-57
2022/06/10 09:14:24;;;;;;;0.50;0.38;;;22.50;99.90;;;;;;5116688;28;20175;-57
2022/06/10 09:17:07;;;;;;;0.30;0.30;;;22.60;99.90;;;;;;5114856;28;20303;-58
2022/06/10 09:19:40;;;;;;;0.38;0.38;;;22.60;99.90;;;;;;5115985;28;20165;-57
2022/06/10 09:22:22;;;;;;;0.60;0.50;;;22.50;99.90;;;;;;5116675;28;20169;-59
2022/06/10 09:25:07;;;;;;;0.30;0.20;;;22.30;99.90;;;;;;5116980;28;20169;-57
2022/06/10 09:27:55;;;;;;;0.10;0.10;;;22.10;99.90;;;;;;5116994;28;20546;-57
2022/06/10 09:30:24;;;;;;;0.10;0.10;;;21.90;99.90;;;;;;5117063;28;20256;-58
2022/06/10 09:33:11;;;;;;;0.28;0.28;;;22.00;99.90;;;;;;5117051;28;20212;-57
2022/06/10 09:35:51;;;;;;;0.10;0.10;;;21.90;99.90;;;;;;5115254;28;20617;-57
2022/06/10 09:38:40;;;;;;;0.20;0.20;;;21.80;99.90;;;;;;5116939;28;20184;-58
2022/06/10 09:41:32;;;;;;;1.55;0.40;;;21.80;99.90;;;;;;5116689;28;20248;-58
2022/06/10 09:44:07;;;;;;;0.52;0.52;;;21.70;99.90;;;;;;5111439;28;20216;-57
2022/06/10 09:47:22;;;;;;;0.10;0.10;;;21.70;99.90;;;;;;5116399;28;20614;-57
2022/06/10 09:50:04;;;;;;;0.30;0.30;;;21.70;99.90;;;;;;5113928;28;20519;-58
2022/06/10 09:52:58;;;;;;;0.47;0.47;;;21.60;99.90;;;;;;5116644;28;20185;-57
2022/06/10 09:55:51;;;;;;;0.57;0.25;;;21.50;99.90;;;;;;5116395;28;20195;-57
2022/06/10 09:58:44;;;;;;;0.20;0.20;;;21.50;99.90;;;;;;5116141;28;20176;-58
2022/06/10 10:01:10;;;;;;;0.20;0.20;;;21.40;99.90;;;;;;5116385;28;20666;-57
2022/06/10 10:04:12;;;;;;;0.20;0.20;;;21.60;99.90;;;;;;5116324;28;20330;-57
2022/06/10 10:06:47;;;;;;;0.28;0.28;;;21.80;99.90;;;;;;5116598;28;20188;-57
2022/06/10 10:09:36;;;;;;;0.10;0.10;;;22.10;99.90;;;;;;5115146;28;20169;-58
2022/06/10 10:12:26;;;;;;;0.20;0.20;;;22.20;99.90;;;;;;5115614;28;20631;-57
2022/06/10 10:15:16;;;;;;;0.30;0.30;;;22.30;99.90;;;;;;5115473;28;20281;-58
2022/06/10 10:17:57;;;;;;;0.30;0.30;;;22.20;99.90;;;;;;5115993;28;20173;-58
2022/06/10 10:20:56;;;;;;;0.10;0.10;;;22.00;99.90;;;;;;5115893;28;20174;-58
2022/06/10 10:23:42;;;;;;;0.30;0.30;;;21.90;99.90;;;;;;5115592;28;20208;-57
2022/06/10 10:26:37;;;;;;;0.38;0.38;;;21.60;99.90;;;;;;5115998;28;20169;-58
2022/06/10 10:29:17;;;;;;;0.35;0.30;;;22.10;99.90;;;;;;5108469;28;20193;-57
2022/06/10 10:31:54;;;;;;;0.13;0.13;;;22.60;99.90;;;;;;5115570;28;20626;-58
2022/06/10 10:34:24;;;;;;;0.52;0.30;;;22.90;99.90;;;;;;5115693;28;20634;-58
2022/06/10 10:36:56;;;;;;;0.17;0.17;;;23.40;99.90;;;;;;5115921;28;20189;-58
2022/06/10 10:39:34;;;;;;;0.30;0.30;;;23.80;99.90;;;;;;5115543;28;20214;-58
2022/06/10 10:42:13;;;;;;;0.20;0.20;;;23.90;99.90;;;;;;5115304;28;20247;-58
2022/06/10 10:44:45;;;;;;;0.30;0.30;;;23.50;99.90;;;;;;5115517;28;20530;-57
2022/06/10 10:47:11;;;;;;;0.25;0.25;;;23.20;99.90;;;;;;5115456;28;20173;-57
2022/06/10 10:49:54;;;;;;;0.10;0.10;;;22.60;99.90;;;;;;5114088;28;20173;-58
2022/06/10 10:52:29;;;;;;;2.45;0.40;;;22.50;99.90;;;;;;5115176;28;20173;-57
2022/06/10 10:55:13;;;;;;;0.30;0.20;;;22.10;99.90;;;;;;5115387;28;20165;-58
2022/06/10 10:58:08;;;;;;;0.30;0.30;;;22.40;99.90;;;;;;5115018;28;20180;-58
2022/06/10 11:00:45;;;;;;;0.30;0.30;;;22.70;99.90;;;;;;5099113;28;20634;-57
2022/06/10 11:03:24;;;;;;;0.65;0.65;;;22.60;99.90;;;;;;5115172;28;20629;-57
2022/06/10 11:05:52;;;;;;;0.35;0.30;;;22.40;99.90;;;;;;5114972;28;20181;-57
2022/06/10 11:08:37;;;;;;;0.38;0.20;;;22.30;99.90;;;;;;5114863;28;20185;-59
2022/06/10 11:11:24;;;;;;;0.30;0.30;;;22.50;99.90;;;;;;5114786;28;20169;-57
2022/06/10 11:13:53;;;;;;;0.20;0.20;;;22.50;99.90;;;;;;5114941;28;20169;-57
2022/06/10 11:16:40;;;;;;;0.15;0.15;;;22.40;99.90;;;;;;5114953;28;20175;-58
2022/06/10 11:19:15;;;;;;;0.38;0.20;;;22.30;99.90;;;;;;5114711;28;20166;-59
2022/06/10 11:21:55;;;;;;;0.50;0.40;;;22.30;99.90;;;;;;5114065;28;20175;-57
2022/06/10 11:24:27;;;;;;;0.22;0.22;;;22.40;99.90;;;;;;5114578;28;20216;-57
2022/06/10 11:26:58;;;;;;;0.28;0.28;;;22.40;99.90;;;;;;5114567;28;20172;-57
2022/06/10 11:29:24;;;;;;;0.25;0.25;;;22.60;99.90;;;;;;5114530;28;20301;-58
2022/06/10 11:31:57;;;;;;;0.47;0.47;;;22.70;99.90;;;;;;5114394;28;20183;-57
2022/06/10 11:34:26;;;;;;;0.43;0.40;;;22.90;99.90;;;;;;5114357;28;20260;-57
2022/06/10 11:36:53;;;;;;;0.35;0.35;;;23.00;99.90;;;;;;5114484;28;20181;-57
2022/06/10 11:39:25;;;;;;;0.30;0.30;;;23.10;99.90;;;;;;5113029;28;20173;-58
2022/06/10 11:42:14;;;;;;;0.30;0.30;;;23.00;99.90;;;;;;5114289;28;20188;-57
2022/06/10 11:44:52;;;;;;;1.25;0.50;;;22.70;99.90;;;;;;5114057;28;20557;-57
2022/06/10 11:47:45;;;;;;;0.85;0.70;;;22.60;99.90;;;;;;5113018;28;20165;-59
2022/06/10 11:50:27;;;;;;;0.82;0.35;;;23.10;99.90;;;;;;5114148;28;20626;-57
2022/06/10 11:53:20;;;;;;;0.10;0.10;;;23.50;99.90;;;;;;5114314;28;20260;-58
2022/06/10 11:55:50;;;;;;;0.20;0.20;;;24.00;99.90;;;;;;5112986;28;20204;-57
2022/06/10 12:01:24;;;;;;;0.32;0.32;;;23.40;99.90;;;;;;5113916;28;20242;-58
2022/06/10 12:04:00;;;;;;;0.30;0.30;;;23.30;99.90;;;;;;5114022;28;20204;-57
2022/06/10 12:06:38;;;;;;;0.43;0.32;;;23.20;99.90;;;;;;5113829;28;20192;-58
2022/06/10 12:09:29;;;;;;;0.30;0.20;;;23.20;99.90;;;;;;5113885;28;20615;-58
2022/06/10 12:12:04;;;;;;;0.68;0.68;;;22.90;99.90;;;;;;5113990;28;20523;-58
2022/06/10 12:14:41;;;;;;;0.20;0.20;;;22.70;99.90;;;;;;5113877;28;20177;-58
2022/06/10 12:17:29;;;;;;;0.10;0.10;;;22.40;99.90;;;;;;5113873;28;20598;-58
2022/06/10 12:19:59;;;;;;;0.22;0.22;;;22.20;99.90;;;;;;5113589;28;20226;-58
2022/06/10 12:22:26;;;;;;;0.20;0.20;;;22.10;99.90;;;;;;5113385;28;20177;-57
2022/06/10 12:24:53;;;;;;;0.20;0.20;;;22.20;99.90;;;;;;5113524;28;20616;-58
2022/06/10 12:27:48;;;;;;;0.20;0.20;;;22.10;99.90;;;;;;5113663;28;20181;-58
2022/06/10 12:30:18;;;;;;;0.30;0.30;;;22.30;99.90;;;;;;5113593;28;20200;-57
2022/06/10 12:33:04;;;;;;;0.30;0.30;;;22.30;99.90;;;;;;5113624;28;20183;-58
2022/06/10 12:35:34;;;;;;;0.30;0.30;;;22.30;99.90;;;;;;5117904;28;20245;-58
2022/06/10 12:38:24;;;;;;;0.30;0.30;;;22.50;99.90;;;;;;5117884;28;20217;-58
2022/06/10 12:41:02;;;;;;;0.30;0.30;;;22.80;99.90;;;;;;5117395;28;20272;-57
2022/06/10 12:43:38;;;;;;;0.35;0.35;;;22.90;99.90;;;;;;5117871;28;20563;-57
2022/06/10 12:46:39;;;;;;;0.32;0.32;;;22.90;99.90;;;;;;5117746;28;20172;-57
2022/06/10 12:49:19;;;;;;;0.30;0.30;;;22.90;99.90;;;;;;5115263;28;20173;-58
2022/06/10 12:52:10;;;;;;;0.30;0.25;;;23.00;99.90;;;;;;5116463;28;20645;-58
2022/06/10 12:54:51;;;;;;;0.80;0.30;;;23.30;99.90;;;;;;5115291;28;20369;-57
2022/06/10 12:57:28;;;;;;;0.25;0.25;;;23.20;99.90;;;;;;5117473;28;20641;-57
2022/06/10 13:00:38;;;;;;;0.20;0.20;;;23.00;99.90;;;;;;5117236;28;20645;-58
2022/06/10 13:03:12;;;;;;;0.10;0.10;;;22.80;99.90;;;;;;5074236;28;20237;-58
2022/06/10 13:05:38;;;;;;;0.75;0.20;;;22.80;99.90;;;;;;5113335;28;20650;-57
2022/06/10 13:08:34;;;;;;;1.20;0.45;;;22.70;99.90;;;;;;5117109;28;20208;-57
2022/06/10 13:11:02;;;;;;;0.25;0.25;;;22.60;99.90;;;;;;5115937;28;20222;-58
2022/06/10 13:13:28;;;;;;;0.22;0.22;;;22.60;99.90;;;;;;5117141;28;20173;-57
2022/06/10 13:16:16;;;;;;;0.20;0.20;;;22.60;99.90;;;;;;5116988;28;20169;-58
2022/06/10 13:18:53;;;;;;;0.30;0.30;;;22.40;99.90;;;;;;5116710;28;20209;-57
2022/06/10 13:21:29;;;;;;;0.30;0.30;;;22.20;99.90;;;;;;5115814;28;20169;-58
2022/06/10 13:23:58;;;;;;;0.28;0.15;;;22.10;99.90;;;;;;5116931;28;20669;-58
2022/06/10 13:26:25;;;;;;;0.40;0.40;;;21.90;99.90;;;;;;5116939;28;20181;-57
2022/06/10 13:28:51;;;;;;;0.30;0.30;;;21.80;99.90;;;;;;5098414;28;20213;-57
2022/06/10 13:31:26;;;;;;;0.20;0.20;;;21.70;99.90;;;;;;5117089;28;20185;-57
2022/06/10 13:33:57;;;;;;;0.32;0.28;;;21.60;99.90;;;;;;5115522;28;20172;-58